Stormwatcher's Retreat Logo




                  Temp     Hi    Low   Out    Dew  Wind  Wind   Wind    Hi    Hi   Wind   Heat    THW   THSW                Rain  Solar   Solar Hi Solar   UV    UV    Hi     Heat    Cool    In     In    In     In     In   In Air          Wind  Wind    ISS   Arc.
  Date    Time     Out   Temp   Temp   Hum    Pt. Speed   Dir    Run Speed   Dir  Chill  Index  Index  Index   Bar    Rain  Rate   Rad.  Energy    Rad.  Index  Dose   UV     D-D     D-D    Temp   Hum    Dew   Heat    EMC Density     ET   Samp   Tx   Recept  Int.
------------------------------------------------------------------------------------------------------------------------------------------------------------------------------------------------------------------------------------------------------------------------
 3/31/20 12:10a   47.0   47.2   47.0     1  -49.3  11.0   WSW   1.83  15.0   WSW   41.3   44.2   38.5   34.6  30.048  0.01  0.06     0     0.00      0     0.0  0.00   0.0   0.125   0.000   68.8    45   46.6   66.9   8.47  .0746    0.000   210    5    100.0   10 
 3/31/20 12:20a   47.2   47.3   47.1     1  -49.2  10.0   WSW   1.67  14.0   WSW   42.0   44.4   39.2   35.2  30.046  0.01  0.07     0     0.00      0     0.0  0.00   0.0   0.124   0.000   68.7    45   46.5   66.8   8.48  .0746    0.000   212    5    100.0   10 
 3/31/20 12:30a   47.5   47.5   47.2     1  -49.0  10.0   WSW   1.67  14.0    SW   42.4   44.7   39.6   35.6  30.043  0.01  0.07     0     0.00      0     0.0  0.00   0.0   0.122   0.000   68.6    45   46.4   66.7   8.48  .0746    0.000   213    5    100.0   10 
 3/31/20 12:40a   47.7   47.7   47.5     1  -48.9   8.0    SW   1.33  14.0   WSW   43.7   44.9   40.9   36.6  30.036  0.01  0.06     0     0.00      0     0.0  0.00   0.0   0.120   0.000   68.6    44   45.8   66.6   8.35  .0746    0.000   213    5    100.0   10 
 3/31/20 12:50a   47.5   47.8   47.5     1  -49.0   7.0    SW   1.17  12.0     S   44.2   44.7   41.4   36.9  30.033  0.00  0.04     0     0.00      0     0.0  0.00   0.0   0.122   0.000   68.5    44   45.7   66.5   8.35  .0746    0.000   213    5    100.0   10 
 3/31/20  1:00a   47.6   47.6   47.5     1  -48.9   7.0    SW   1.17  13.0   SSE   44.3   44.8   41.5   37.1  30.032  0.00  0.00     0     0.00      0     0.0  0.00   0.0   0.121   0.000   68.4    44   45.6   66.4   8.35  .0747    0.007   212    5    100.0   10 
 3/31/20  1:10a   47.9   47.9   47.6     1  -48.8   8.0    SW   1.33  15.0    SW   44.0   45.0   41.1   36.8  30.034  0.00  0.00     0     0.00      0     0.0  0.00   0.0   0.119   0.000   68.4    44   45.6   66.4   8.35  .0747    0.000   211    5    100.0   10 
 3/31/20  1:20a   48.1   48.2   47.9     1  -48.6   9.0    SW   1.50  15.0   WSW   43.6   45.2   40.7   36.6  30.036  0.00  0.00     0     0.00      0     0.0  0.00   0.0   0.117   0.000   68.3    44   45.5   66.4   8.35  .0747    0.000   213    5    100.0   10 
 3/31/20  1:30a   48.3   48.3   48.1     1  -48.5  10.0   SSW   1.67  16.0   SSE   43.3   45.4   40.4   36.4  30.037  0.00  0.00     0     0.00      0     0.0  0.00   0.0   0.116   0.000   68.3    44   45.5   66.4   8.35  .0747    0.000   213    5    100.0   10 
 3/31/20  1:40a   48.3   48.4   48.2     1  -48.5  11.0    SW   1.83  19.0   WSW   42.8   45.4   39.9   36.1  30.038  0.00  0.00     0     0.00      0     0.0  0.00   0.0   0.116   0.000   68.2    44   45.4   66.3   8.35  .0747    0.000   213    5    100.0   10 
 3/31/20  1:50a   48.5   48.5   48.2     1  -48.4  12.0   SSW   2.00  19.0   WSW   42.6   45.6   39.7   36.0  30.042  0.01  0.00     0     0.00      0     0.0  0.00   0.0   0.115   0.000   68.2    44   45.4   66.3   8.35  .0747    0.000   212    5    100.0   10 
 3/31/20  2:00a   48.6   48.7   48.5     1  -48.3  13.0    SW   2.17  20.0    SW   42.3   45.7   39.4   35.8  30.045  0.00  0.00     0     0.00      0     0.0  0.00   0.0   0.114   0.000   68.1    44   45.4   66.2   8.35  .0747    0.007   212    5    100.0   10 
 3/31/20  2:10a   48.5   48.7   48.5     1  -48.4  13.0    SW   2.17  21.0   WSW   42.2   45.6   39.3   35.7  30.049  0.00  0.00     0     0.00      0     0.0  0.00   0.0   0.115   0.000   68.0    44   45.3   66.1   8.35  .0748    0.000   211    5    100.0   10 
 3/31/20  2:20a   48.5   48.5   48.4     1  -48.4  11.0   SSW   1.83  19.0   WSW   43.1   45.6   40.2   36.4  30.046  0.00  0.00     0     0.00      0     0.0  0.00   0.0   0.115   0.000   67.9    44   45.2   66.0   8.35  .0748    0.000   212    5    100.0   10 
 3/31/20  2:30a   48.5   48.7   48.4     1  -48.4  11.0   SSW   1.83  19.0    SW   43.1   45.6   40.2   36.4  30.046  0.00  0.00     0     0.00      0     0.0  0.00   0.0   0.115   0.000   67.9    44   45.2   66.0   8.35  .0748    0.000   214    5    100.0   10 
 3/31/20  2:40a   48.6   48.6   48.4     1  -48.3  12.0    SW   2.00  19.0    SW   42.7   45.7   39.8   36.1  30.047  0.00  0.00     0     0.00      0     0.0  0.00   0.0   0.114   0.000   67.8    44   45.1   65.9   8.35  .0748    0.000   213    5    100.0   10 
 3/31/20  2:50a   48.4   48.6   48.3     1  -48.4  12.0    SW   2.00  19.0   WSW   42.5   45.5   39.6   35.9  30.046  0.00  0.00     0     0.00      0     0.0  0.00   0.0   0.115   0.000   67.8    44   45.1   65.9   8.35  .0748    0.000   212    5    100.0   10 
 3/31/20  3:00a   48.5   48.5   48.3     1  -48.4  12.0    SW   2.00  19.0   WSW   42.6   45.6   39.7   36.0  30.041  0.00  0.00     0     0.00      0     0.0  0.00   0.0   0.115   0.000   67.7    44   45.0   65.7   8.35  .0748    0.008   211    5    100.0   10 
 3/31/20  3:10a   48.8   48.8   48.5     1  -48.2  12.0    SW   2.00  18.0    SW   43.0   45.9   40.1   36.4  30.040  0.00  0.00     0     0.00      0     0.0  0.00   0.0   0.113   0.000   67.7    44   45.0   65.7   8.35  .0748    0.000   212    5    100.0   10 
 3/31/20  3:20a   48.6   48.8   48.6     1  -48.3  12.0   SSW   2.00  18.0    SW   42.7   45.7   39.8   36.1  30.037  0.00  0.00     0     0.00      0     0.0  0.00   0.0   0.114   0.000   67.5    44   44.8   65.5   8.35  .0748    0.000   213    5    100.0   10 
 3/31/20  3:30a   48.5   48.7   48.5     1  -48.4  11.0   SSW   1.83  16.0    SE   43.1   45.6   40.2   36.4  30.041  0.00  0.00     0     0.00      0     0.0  0.00   0.0   0.115   0.000   67.5    44   44.8   65.5   8.35  .0748    0.000   214    5    100.0   10 
 3/31/20  3:40a   48.6   48.6   48.3     1  -48.3  11.0    SW   1.83  19.0   SSE   43.2   45.7   40.3   36.5  30.040  0.00  0.00     0     0.00      0     0.0  0.00   0.0   0.114   0.000   67.5    44   44.8   65.5   8.35  .0748    0.000   209    5    100.0   10 
 3/31/20  3:50a   46.2   48.8   46.2     1  -49.8  14.0     W   2.33  27.0     W   39.2   43.5   36.5   33.0  30.056  0.01  0.00     0     0.00      0     0.0  0.00   0.0   0.131   0.000   67.4    44   44.7   65.4   8.35  .0749    0.000   212    5    100.0   10 
 3/31/20  4:00a   46.1   46.2   45.8     1  -49.9  13.0   WSW   2.17  19.0     W   39.4   43.4   36.7   33.0  30.050  0.02  0.21     0     0.00      0     0.0  0.00   0.0   0.131   0.000   67.3    44   44.6   65.3   8.35  .0749    0.008   211    5    100.0   10 
 3/31/20  4:10a   46.8   46.8   46.2     1  -49.4   9.0   WSW   1.50  15.0   WSW   42.1   44.0   39.3   35.1  30.044  0.00  0.04     0     0.00      0     0.0  0.00   0.0   0.126   0.000   67.3    44   44.6   65.3   8.35  .0749    0.000   212    5    100.0   10 
 3/31/20  4:20a   47.2   47.3   46.8     1  -49.2  10.0   WSW   1.67  15.0   WSW   42.0   44.4   39.2   35.2  30.045  0.00  0.00     0     0.00      0     0.0  0.00   0.0   0.124   0.000   67.2    44   44.5   65.2   8.35  .0749    0.000   213    5    100.0   10 
 3/31/20  4:30a   47.6   47.8   47.3     1  -48.9   9.0   WSW   1.50  13.0   WSW   43.0   44.8   40.2   36.1  30.044  0.00  0.00     0     0.00      0     0.0  0.00   0.0   0.121   0.000   67.1    45   45.0   65.2   8.51  .0749    0.000   212    5    100.0   10 
 3/31/20  4:40a   47.8   47.8   47.6     1  -48.8  11.0   WSW   1.83  14.0   WSW   42.3   45.0   39.5   35.7  30.047  0.00  0.00     0     0.00      0     0.0  0.00   0.0   0.119   0.000   67.0    45   44.9   65.1   8.51  .0749    0.000   211    5    100.0   10 
 3/31/20  4:50a   47.8   48.2   47.8     1  -48.8  11.0   WSW   1.83  16.0    SW   42.3   45.0   39.5   35.7  30.044  0.00  0.00     0     0.00      0     0.0  0.00   0.0   0.119   0.000   67.0    45   44.9   65.1   8.51  .0749    0.000   212    5    100.0   10 
 3/31/20  5:00a   47.9   47.9   47.7     1  -48.8   7.0   WNW   1.17   9.0     W   44.7   45.0   41.8   37.4  30.050  0.00  0.00     0     0.00      0     0.0  0.00   0.0   0.119   0.000   66.9    45   44.9   65.0   8.51  .0749    0.007   212    5    100.0   10 
 3/31/20  5:10a   48.1   48.1   47.8     1  -48.6   9.0   WNW   1.50  12.0     W   43.6   45.2   40.7   36.6  30.054  0.00  0.00     0     0.00      0     0.0  0.00   0.0   0.117   0.000   66.9    45   44.9   65.0   8.51  .0749    0.000   211    5    100.0   10 
 3/31/20  5:20a   48.2   48.3   48.1     1  -48.6  10.0   WNW   1.67  13.0   WNW   43.2   45.3   40.3   36.3  30.054  0.00  0.00     0     0.00      0     0.0  0.00   0.0   0.117   0.000   66.8    45   44.8   64.9   8.51  .0750    0.000   213    5    100.0   10 
 3/31/20  5:30a   47.8   48.2   47.7     1  -48.8  10.0   WNW   1.67  15.0     W   42.8   45.0   40.0   36.0  30.060  0.00  0.00     0     0.00      0     0.0  0.00   0.0   0.119   0.000   66.8    45   44.8   64.9   8.51  .0750    0.000   212    5    100.0   10 
 3/31/20  5:40a   47.6   47.8   47.5     1  -48.9  11.0   WNW   1.83  14.0     W   42.0   44.8   39.2   35.4  30.062  0.00  0.00     0     0.00      0     0.0  0.00   0.0   0.121   0.000   66.7    45   44.7   64.7   8.52  .0750    0.000   211    5    100.0   10 
 3/31/20  5:50a   47.8   47.8   47.6     1  -48.8  10.0     W   1.67  13.0   WNW   42.8   45.0   40.0   36.0  30.062  0.00  0.00     0     0.00      0     0.0  0.00   0.0   0.119   0.000   66.6    45   44.6   64.6   8.52  .0750    0.000   212    5    100.0   10 
 3/31/20  6:00a   48.1   48.1   47.7     1  -48.6   9.0     W   1.50  12.0     W   43.6   45.2   40.7   36.6  30.065  0.00  0.00     0     0.00      0     0.0  0.00   0.0   0.117   0.000   66.6    45   44.6   64.6   8.52  .0750    0.007   208    5    100.0   10 
 3/31/20  6:10a   48.2   48.2   48.0     1  -48.6  11.0   WSW   1.83  15.0     W   42.7   45.3   39.8   36.0  30.069  0.00  0.00     0     0.00      0     0.0  0.00   0.0   0.117   0.000   66.5    45   44.5   64.5   8.52  .0751    0.000   212    5    100.0   10 
 3/31/20  6:20a   48.3   48.4   48.1    10   -5.9  12.0     W   2.00  17.0     W   42.4   45.7   39.8   36.5  30.070  0.00  0.00     0     0.00      0     0.0  0.00   0.0   0.116   0.000   66.6    46   45.2   64.7   8.65  .0750    0.000   212    5    100.0   10 
 3/31/20  6:30a   48.3   48.6   48.3    18    6.7  12.0     W   2.00  18.0     W   42.4   46.0   40.1   37.0  30.071  0.01  0.00     0     0.00      0     0.0  0.00   0.0   0.116   0.000   66.7    46   45.3   64.8   8.65  .0750    0.000   214    5    100.0   10 
 3/31/20  6:40a   47.6   48.6   47.6     9   -8.6   9.0    NW   1.50  18.0     W   43.0   45.0   40.4   36.6  30.075  0.00  0.00     0     0.00      0     0.0  0.00   0.0   0.121   0.000   66.7    46   45.3   64.8   8.65  .0750    0.000   213    5    100.0   10 
 3/31/20  6:50a   46.4   47.6   46.4    14   -0.3  12.0    NW   2.00  20.0    NW   40.2   44.1   37.9   34.6  30.080  0.00  0.00     0     0.00      0     0.0  0.00   0.0   0.129   0.000   66.8    46   45.3   65.0   8.65  .0750    0.000   210    5    100.0   10 
 3/31/20  7:00a   46.7   46.7   46.4    18    5.4  11.0    NW   1.83  16.0    NW   41.0   44.5   38.8   35.6  30.084  0.00  0.00     1     0.01      5     0.0  0.00   0.0   0.127   0.000   66.9    46   45.4   65.1   8.65  .0750    0.007   213    5    100.0   10 
 3/31/20  7:10a   47.3   47.3   46.7    22   10.3  11.0   WNW   1.83  15.0    NW   41.7   45.2   39.6   36.5  30.090  0.00  0.00     5     0.07      5     0.0  0.00   0.0   0.123   0.000   67.2    47   46.3   65.5   8.81  .0750    0.000   212    5    100.0   10 
 3/31/20  7:20a   47.5   47.5   47.3    28   16.0  12.0   WNW   2.00  15.0   WNW   41.5   45.6   39.6   36.8  30.093  0.00  0.00     9     0.13     12     0.0  0.00   0.0   0.122   0.000   67.6    47   46.6   66.0   8.80  .0749    0.000   211    5    100.0   10 
 3/31/20  7:30a   47.8   47.8   47.5    28   16.2  12.0   WNW   2.00  15.0     W   41.8   45.9   39.9   37.2  30.095  0.00  0.00    13     0.19     14     0.0  0.00   0.0   0.119   0.000   68.0    47   47.0   66.4   8.79  .0748    0.000   214    5    100.0   10 
 3/31/20  7:40a   47.7   47.8   47.6    33   20.0  12.0   WNW   2.00  14.0     W   41.7   45.9   39.9   37.3  30.101  0.00  0.00    14     0.20     16     0.0  0.00   0.0   0.120   0.000   68.3    46   46.7   66.6   8.65  .0748    0.000   211    5    100.0   10 
 3/31/20  7:50a   47.5   47.8   47.5    26   14.3   9.0     W   1.50  14.0     W   42.9   45.5   40.9   37.9  30.102  0.00  0.00    16     0.23     26     0.0  0.00   0.0   0.122   0.000   68.6    46   47.0   66.8   8.65  .0748    0.000   209    5    100.0   10 
 3/31/20  8:00a   47.6   47.6   47.4    21    9.5   8.0     W   1.33  11.0     W   43.6   45.4   41.4   38.7  30.104  0.00  0.00    36     0.52     46     0.0  0.00   0.0   0.121   0.000   68.9    46   47.3   67.1   8.65  .0747    0.005   214    5    100.0   10 
 3/31/20  8:10a   47.8   47.8   47.6    18    6.3   7.0     W   1.17   9.0     W   44.6   45.5   42.3   40.3  30.106  0.00  0.00    78     1.12    113     3.5  0.25   5.0   0.119   0.000   69.1    46   47.4   67.3   8.65  .0747    0.000   212    5    100.0   10 
 3/31/20  8:20a   48.0   48.0   47.7    25   13.8   8.0   WNW   1.33  10.0   WNW   44.1   46.0   42.1   41.5  30.107  0.00  0.00   132     1.89    190     5.0  0.36   5.0   0.118   0.000   69.2    46   47.5   67.3   8.65  .0747    0.000   212    5    100.0   10 
 3/31/20  8:30a   48.1   48.2   47.9    27   15.6   8.0   WNW   1.33  10.0     W   44.2   46.1   42.2   43.3  30.109  0.00  0.00   100     1.43    120     5.0  0.36   5.0   0.117   0.000   69.2    46   47.5   67.3   8.65  .0747    0.000   213    5    100.0   10 
 3/31/20  8:40a   48.4   48.4   48.1    31   19.1  10.0   WNW   1.67  15.0   WNW   43.4   46.5   41.5   42.5  30.111  0.00  0.00    90     1.29    104     5.0  0.36   5.0   0.115   0.000   69.3    45   47.0   67.3   8.46  .0747    0.000   213    5    100.0   10 
 3/31/20  8:50a   48.5   48.6   48.4    39   24.6  12.0   WNW   2.00  16.0     W   42.6   47.0   41.1   43.1  30.115  0.00  0.00   124     1.78    153     5.0  0.36   5.0   0.115   0.000   69.4    45   47.1   67.4   8.46  .0747    0.000   212    5    100.0   10 
 3/31/20  9:00a   47.5   48.6   47.5    46   27.7  17.0     W   2.83  26.0     W   39.8   46.2   38.5   42.0  30.120  0.00  0.00   228     3.27    294     5.0  0.36   5.0   0.122   0.000   69.5    45   47.2   67.4   8.46  .0747    0.007   211    5    100.0   10 
 3/31/20  9:10a   46.8   47.4   46.8    33   19.2  15.0   WNW   2.50  22.0     W   39.6   45.1   37.9   39.0  30.127  0.00  0.00   105     1.51    118     5.0  0.36   5.0   0.126   0.000   69.5    45   47.2   67.4   8.46  .0747    0.000   212    5    100.0   10 
 3/31/20  9:20a   46.3   46.9   46.3    29   15.7  10.0    NW   1.67  16.0   WNW   41.0   44.5   39.2   39.7  30.132  0.00  0.00    86     1.23    105     5.0  0.36   5.0   0.130   0.000   69.6    45   47.3   67.5   8.46  .0747    0.000   212    5    100.0   10 
 3/31/20  9:30a   46.1   46.3   46.0    23   10.3   4.0   WNW   0.67   8.0    NW   44.3   44.1   42.3   48.7  30.133  0.00  0.00   291     4.17    420     5.0  0.36   5.0   0.131   0.000   69.7    45   47.4   67.6   8.46  .0747    0.000   212    5    100.0   10 
 3/31/20  9:40a   46.3   46.3   46.1    22    9.5   3.0   WNW   0.50   4.0   WNW   45.5   44.3   43.5   53.0  30.134  0.00  0.00   422     6.05    441     5.0  0.36   5.0   0.130   0.000   69.9    45   47.6   67.7   8.45  .0746    0.000   212    5    100.0   10 
 3/31/20  9:50a   46.7   46.7   46.4    20    7.7   2.0   WNW   0.33   4.0   WNW   46.7   44.5   44.5   53.9  30.139  0.00  0.00   438     6.28    478     5.0  0.36   5.0   0.127   0.000   69.9    45   47.6   67.7   8.45  .0747    0.000   211    5    100.0   10 
 3/31/20 10:00a   46.9   46.9   46.6    19    6.7   2.0     W   0.33   4.0   WSW   46.9   44.7   44.7   56.0  30.142  0.00  0.00   521     7.47    598     4.9  0.35   5.0   0.126   0.000   70.0    45   47.7   67.8   8.45  .0746    0.008   213    5    100.0   10 
 3/31/20 10:10a   47.0   47.0   46.9    20    7.9   2.0    SW   0.33   3.0   WSW   47.0   44.8   44.8   50.7  30.144  0.00  0.00   283     4.06    545     4.9  0.35   4.9   0.125   0.000   70.0    45   47.7   67.8   8.45  .0747    0.000   212    5    100.0   10 
 3/31/20 10:20a   47.5   47.6   47.0    18    6.0   3.0   SSW   0.50   6.0    SW   46.8   45.2   44.5   55.2  30.144  0.00  0.00   543     7.78    664     4.9  0.35   4.9   0.122   0.000   70.1    45   47.8   67.9   8.45  .0746    0.000   212    5    100.0   10 
 3/31/20 10:30a   47.6   47.6   47.4    21    9.5   6.0    SW   1.00   9.0   WSW   44.8   45.4   42.6   55.0  30.146  0.00  0.00   623     8.93    733     4.9  0.35   4.9   0.121   0.000   70.1    45   47.8   67.9   8.45  .0746    0.000   214    5    100.0   10 
 3/31/20 10:40a   47.9   47.9   47.6    25   13.7   7.0    SW   1.17  11.0   WSW   44.7   45.9   42.7   53.9  30.147  0.00  0.00   605     8.67    837     4.9  0.35   4.9   0.119   0.000   70.2    45   47.9   68.1   8.45  .0746    0.000   212    5    100.0   10 
 3/31/20 10:50a   47.2   47.9   47.2    28   15.7   9.0   WSW   1.50  16.0   WSW   42.5   45.3   40.6   44.1  30.158  0.00  0.00   219     3.14    309     5.0  0.36   5.0   0.124   0.000   70.1    45   47.8   67.9   8.45  .0747    0.000   212    5    100.0   10 
 3/31/20 11:00a   47.2   47.2   46.9    32   18.8   8.0    NW   1.33  13.0    NW   43.1   45.4   41.3   46.5  30.161  0.00  0.00   291     4.17    701     5.0  0.36   5.0   0.124   0.000   70.1    45   47.8   67.9   8.45  .0747    0.010   213    5    100.0   10 
 3/31/20 11:10a   48.2   48.2   47.2    31   18.9   5.0   WNW   0.83   8.0    NW   46.1   46.3   44.2   55.3  30.163  0.00  0.00   641     9.19    724     5.0  0.36   5.0   0.117   0.000   70.2    45   47.9   68.1   8.45  .0747    0.000   210    5    100.0   10 
 3/31/20 11:20a   48.0   48.3   48.0    39   24.2   4.0    NW   0.67   7.0   WNW   46.6   46.5   45.1   54.3  30.166  0.00  0.00   511     7.33    770     5.0  0.36   5.0   0.118   0.000   70.3    45   47.9   68.2   8.45  .0747    0.000   213    5    100.0   10 
 3/31/20 11:30a   48.3   48.4   48.0    35   21.9   4.0     W   0.67   7.0   WNW   46.9   46.6   45.2   58.0  30.168  0.00  0.00   746    10.69    865     5.0  0.36   5.0   0.116   0.000   70.4    45   48.0   68.3   8.45  .0746    0.000   211    5    100.0   10 
 3/31/20 11:40a   48.3   48.5   48.3    35   21.9   4.0   WSW   0.67   8.0   WSW   46.9   46.6   45.2   57.6  30.167  0.00  0.00   745    10.68    770     4.9  0.35   5.0   0.116   0.000   70.5    45   48.1   68.4   8.45  .0746    0.000   211    5    100.0   10 
 3/31/20 11:50a   48.8   48.8   48.4    51   31.5   9.0     W   1.50  13.0   WNW   44.5   47.6   43.3   54.9  30.169  0.00  0.00   762    10.92    768     4.9  0.35   4.9   0.113   0.000   70.6    45   48.2   68.6   8.45  .0746    0.000   213    5    100.0   10 
 3/31/20 12:00p   49.0   49.0   48.6    45   28.6  11.0     W   1.83  14.0     W   43.6   47.7   42.3   52.7  30.171  0.00  0.00   758    10.87    759     5.0  0.36   5.0   0.111   0.000   70.6    45   48.2   68.6   8.45  .0746    0.014   213    5    100.0   10 
 3/31/20 12:10p   48.9   49.1   48.8    48   30.1  11.0     W   1.83  15.0     W   43.5   47.7   42.3   52.7  30.173  0.00  0.00   765    10.97    770     5.0  0.36   5.0   0.112   0.000   70.6    45   48.2   68.6   8.45  .0746    0.000   211    5    100.0   10 
 3/31/20 12:20p   49.3   49.3   48.8    49   30.9  11.0     W   1.83  14.0     W   44.0   48.1   42.8   53.5  30.173  0.00  0.00   788    11.30    823     5.0  0.36   5.0   0.109   0.000   70.6    45   48.2   68.6   8.45  .0746    0.000   214    5    100.0   10 
 3/31/20 12:30p   49.4   49.5   49.1    49   31.0  10.0     W   1.67  12.0   WNW   44.6   48.2   43.4   55.7  30.172  0.00  0.00   862    12.36    902     5.0  0.36   5.0   0.108   0.000   70.7    45   48.3   68.7   8.45  .0746    0.000   210    5    100.0   10 
 3/31/20 12:40p   49.2   49.4   49.1    46   29.3  11.0     W   1.83  15.0     W   43.8   47.9   42.5   51.2  30.170  0.00  0.00   688     9.86    937     5.0  0.36   5.0   0.110   0.000   70.7    45   48.3   68.7   8.45  .0746    0.000   212    5    100.0   10 
 3/31/20 12:50p   49.5   49.5   49.1    47   30.1  11.0     W   1.83  14.0     W   44.2   48.2   42.9   54.1  30.171  0.00  0.00   837    12.00    893     5.0  0.36   5.0   0.108   0.000   70.7    45   48.3   68.7   8.45  .0746    0.000   214    5    100.0   10 
 3/31/20  1:00p   49.3   49.5   49.3    52   32.4  11.0     W   1.83  14.0     W   44.0   48.2   42.9   53.6  30.173  0.00  0.00   805    11.54    856     5.0  0.36   5.0   0.109   0.000   70.7    45   48.3   68.7   8.45  .0746    0.017   211    5    100.0   10 
 3/31/20  1:10p   49.4   49.7   49.3    54   33.4  10.0     W   1.67  14.0   WSW   44.6   48.4   43.6   55.2  30.175  0.00  0.00   835    11.97    868     5.0  0.36   5.0   0.108   0.000   70.7    45   48.3   68.7   8.45  .0746    0.000   212    5    100.0   10 
 3/31/20  1:20p   49.6   49.6   49.2    51   32.2  10.0     W   1.67  13.0     W   44.8   48.4   43.6   55.1  30.175  0.00  0.00   829    11.88    879     5.1  0.36   5.4   0.107   0.000   70.7    45   48.3   68.7   8.45  .0746    0.000   211    5    100.0   10 
 3/31/20  1:30p   49.5   49.6   49.3    52   32.6  10.0     W   1.67  15.0     W   44.7   48.4   43.6   55.1  30.178  0.00  0.00   826    11.84    875     6.2  0.44   6.7   0.108   0.000   70.8    45   48.4   68.8   8.45  .0746    0.000   212    5    100.0   10 
 3/31/20  1:40p   49.7   49.7   49.3    49   31.3  10.0     W   1.67  13.0     W   44.9   48.5   43.7   55.8  30.178  0.00  0.00   853    12.23    870     6.0  0.43   6.2   0.106   0.000   70.8    45   48.4   68.8   8.45  .0746    0.000   213    5    100.0   10 
 3/31/20  1:50p   49.7   49.7   49.4    50   31.8  11.0   WSW   1.83  14.0     W   44.4   48.5   43.2   54.7  30.178  0.00  0.00   832    11.93    842     6.1  0.44   6.3   0.106   0.000   70.9    45   48.5   69.0   8.45  .0746    0.000   214    5    100.0   10 
 3/31/20  2:00p   49.7   49.9   49.4    52   32.8  10.0   WSW   1.67  15.0   WSW   44.9   48.6   43.8   56.3  30.179  0.00  0.00   855    12.26    926     6.0  0.43   6.2   0.106   0.000   70.9    45   48.5   69.0   8.45  .0746    0.018   209    5    100.0   10 
 3/31/20  2:10p   49.4   49.8   49.4    52   32.5  10.0   WSW   1.67  16.0     W   44.6   48.3   43.5   55.6  30.180  0.00  0.00   819    11.74    949     5.9  0.42   6.1   0.108   0.000   70.9    45   48.5   69.0   8.45  .0746    0.000   212    5    100.0   10 
 3/31/20  2:20p   48.3   49.4   48.3    51   31.0  12.0     W   2.00  15.0     W   42.4   47.1   41.2   46.9  30.180  0.00  0.00   369     5.29    531     6.0  0.43   6.1   0.116   0.000   71.0    45   48.6   69.1   8.45  .0746    0.000   213    5    100.0   10 
 3/31/20  2:30p   49.0   49.0   48.2    44   28.0   9.0     W   1.50  13.0     W   44.7   47.7   43.4   51.4  30.179  0.00  0.00   476     6.82    879     6.0  0.43   6.3   0.111   0.000   71.0    45   48.6   69.1   8.45  .0746    0.000   212    5    100.0   10 
 3/31/20  2:40p   49.2   49.3   48.9    43   27.6   8.0     W   1.33  10.0     W   45.5   47.8   44.1   56.5  30.178  0.00  0.00   757    10.85    851     6.0  0.43   6.2   0.110   0.000   71.0    45   48.6   69.1   8.45  .0746    0.000   212    5    100.0   10 
 3/31/20  2:50p   49.3   49.5   49.1    48   30.4   9.0     W   1.50  12.0     W   45.1   48.1   43.9   56.6  30.178  0.00  0.00   770    11.04    775     6.1  0.44   6.2   0.109   0.000   71.1    45   48.7   69.3   8.45  .0745    0.000   214    5    100.0   10 
 3/31/20  3:00p   49.4   49.8   49.4    54   33.4   9.0     W   1.50  12.0     W   45.2   48.4   44.2   57.2  30.177  0.00  0.00   758    10.87    761     6.0  0.43   6.3   0.108   0.000   71.1    45   48.7   69.3   8.45  .0745    0.015   211    5    100.0   10 
 3/31/20  3:10p   49.8   49.8   49.4    52   32.9  10.0     W   1.67  14.0     W   45.1   48.7   44.0   56.6  30.178  0.00  0.00   744    10.67    752     6.1  0.44   6.4   0.106   0.000   71.1    45   48.7   69.3   8.45  .0745    0.000   211    5    100.0   10 
 3/31/20  3:20p   49.8   49.8   49.7    52   32.9   9.0   WSW   1.50  12.0     W   45.7   48.7   44.6   58.0  30.175  0.00  0.00   736    10.55    747     6.2  0.44   6.3   0.106   0.000   71.2    45   48.8   69.4   8.45  .0745    0.000   213    5    100.0   10 
 3/31/20  3:30p   50.0   50.2   49.8    54   34.0   8.0     W   1.33  12.0     W   46.5   49.0   45.5   59.5  30.174  0.00  0.00   717    10.28    726     6.2  0.44   6.6   0.104   0.000   71.2    45   48.8   69.4   8.45  .0745    0.000   212    5    100.0   10 
 3/31/20  3:40p   49.9   49.9   49.2    53   33.4  10.0     W   1.67  14.0   WSW   45.2   48.8   44.1   58.3  30.175  0.00  0.00   741    10.62    830     6.1  0.44   6.4   0.105   0.000   71.3    45   48.9   69.6   8.45  .0745    0.000   213    5    100.0   10 
 3/31/20  3:50p   49.8   50.0   49.7    56   34.7   8.0     W   1.33  11.0     W   46.3   48.8   45.3   57.5  30.174  0.00  0.00   596     8.54    817     5.9  0.42   6.2   0.106   0.000   71.3    45   48.9   69.6   8.45  .0745    0.000   214    5    100.0   10 
 3/31/20  4:00p   49.7   49.9   49.6    55   34.2   9.0     W   1.50  12.0   WNW   45.5   48.7   44.5   50.5  30.175  0.00  0.00   288     4.13    434     6.0  0.43   6.2   0.106   0.000   71.4    45   48.9   69.7   8.45  .0745    0.015   211    5    100.0   10 
 3/31/20  4:10p   50.0   50.0   49.5    56   34.9   9.0     W   1.50  12.0     W   45.9   49.0   44.9   61.2  30.172  0.00  0.00   718    10.29    751     6.1  0.44   6.6   0.104   0.000   71.5    45   49.0   69.8   8.45  .0745    0.000   211    5    100.0   10 
 3/31/20  4:20p   50.3   50.6   50.0    54   34.3   9.0     W   1.50  13.0     W   46.3   49.2   45.2   63.4  30.173  0.00  0.00   751    10.77    791     5.9  0.42   6.0   0.102   0.000   71.6    45   49.1   70.0   8.45  .0745    0.000   212    5    100.0   10 
 3/31/20  4:30p   49.4   50.3   49.4    56   34.3  11.0     W   1.83  15.0   WSW   44.1   48.4   43.1   52.0  30.175  0.00  0.00   433     6.21    686     5.9  0.42   6.1   0.108   0.000   71.6    45   49.1   70.0   8.45  .0745    0.000   211    5    100.0   10 
 3/31/20  4:40p   49.6   49.7   49.3    52   32.7  10.0     W   1.67  13.0     W   44.8   48.5   43.7   49.3  30.175  0.00  0.00   260     3.73    671     6.0  0.43   6.1   0.107   0.000   71.6    45   49.1   70.0   8.45  .0745    0.000   213    5    100.0   10 
 3/31/20  4:50p   49.1   49.6   49.1    54   33.2  11.0     W   1.83  15.0     W   43.7   48.1   42.7   46.9  30.172  0.00  0.00   201     2.88    272     5.9  0.42   6.2   0.110   0.000   71.6    45   49.1   70.0   8.45  .0744    0.000   214    5    100.0   10 
 3/31/20  5:00p   49.8   49.8   49.2    52   32.9   9.0   WSW   1.50  13.0   WSW   45.7   48.7   44.6   53.5  30.172  0.00  0.00   360     5.16    450     6.0  0.43   6.2   0.106   0.000   71.6    45   49.1   70.0   8.45  .0744    0.012   212    5    100.0   10 
 3/31/20  5:10p   49.9   49.9   49.6    55   34.4  10.0   WSW   1.67  15.0   WSW   45.2   48.9   44.2   59.7  30.172  0.00  0.00   545     7.81    587     6.2  0.44   6.4   0.105   0.000   71.6    45   49.1   70.0   8.45  .0744    0.000   213    5    100.0   10 
 3/31/20  5:20p   49.6   49.9   49.6    55   34.1  11.0   WSW   1.83  14.0    SW   44.3   48.6   43.3   57.2  30.173  0.00  0.00   493     7.07    529     6.1  0.44   6.4   0.107   0.000   71.6    45   49.1   70.0   8.45  .0745    0.000   214    5    100.0   10 
 3/31/20  5:30p   49.7   49.7   49.4    52   32.8  11.0     W   1.83  14.0    SW   44.4   48.6   43.3   55.4  30.172  0.00  0.00   425     6.09    441     6.1  0.44   6.3   0.106   0.000   71.6    45   49.1   70.0   8.45  .0744    0.000   213    5    100.0   10 
 3/31/20  5:40p   49.7   49.9   49.5    52   32.8  10.0     W   1.67  15.0   WSW   44.9   48.6   43.8   53.7  30.171  0.00  0.00   343     4.92    408     6.1  0.44   6.3   0.106   0.000   71.6    45   49.1   70.0   8.45  .0744    0.000   209    5    100.0   10 
 3/31/20  5:50p   49.3   49.7   49.3    57   34.7  11.0     W   1.83  14.0     W   44.0   48.4   43.1   54.1  30.171  0.00  0.00   364     5.22    411     6.1  0.44   6.4   0.109   0.000   71.6    45   49.1   70.0   8.45  .0744    0.000   212    5    100.0   10 
 3/31/20  6:00p   49.4   49.7   49.3    52   32.5   9.0     W   1.50  13.0     W   45.2   48.3   44.1   44.9  30.169  0.00  0.00   220     3.15    350     6.2  0.44   6.5   0.108   0.000   71.6    45   49.1   70.0   8.45  .0744    0.010   213    5    100.0   10 
 3/31/20  6:10p   49.0   49.4   49.0    51   31.6   9.0   WSW   1.50  12.0     W   44.7   47.8   43.5   41.2  30.173  0.00  0.00    64     0.92     67     6.2  0.44   6.5   0.111   0.000   71.5    45   49.0   69.8   8.45  .0745    0.000   214    5    100.0   10 
 3/31/20  6:20p   47.0   49.0   47.0    52   30.3  13.0   WNW   2.17  19.0   WNW   40.5   45.9   39.4   37.2  30.178  0.00  0.00    54     0.77     65     2.1  0.15   6.3   0.125   0.000   71.5    45   49.0   69.8   8.45  .0745    0.000   208    5    100.0   10 
 3/31/20  6:30p   46.3   47.0   46.3    51   29.1   8.0    NW   1.33  16.0     W   42.1   45.2   41.0   39.6  30.172  0.00  0.00   116     1.66    149     5.7  0.41   6.1   0.130   0.000   71.5    45   49.0   69.8   8.45  .0745    0.000   210    5    100.0   10 
 3/31/20  6:40p   47.0   47.0   46.2    48   28.3   3.0   SSW   0.50   6.0     S   46.3   45.8   45.1   42.7  30.169  0.00  0.00    76     1.09    127     5.0  0.36   6.6   0.125   0.000   71.4    45   48.9   69.7   8.45  .0745    0.000   211    5    100.0   10 
 3/31/20  6:50p   47.3   47.3   47.0    49   29.1   3.0     W   0.50   7.0   WNW   46.6   46.1   45.4   42.5  30.168  0.00  0.00    49     0.70     54     0.0  0.00   0.0   0.123   0.000   71.4    45   48.9   69.7   8.45  .0745    0.000   214    5    100.0   10 
 3/31/20  7:00p   47.7   47.7   47.3    44   26.8   2.0    SW   0.33   4.0    SW   47.7   46.4   46.4   42.9  30.164  0.00  0.00    24     0.34     32     0.0  0.00   0.0   0.120   0.000   71.4    45   48.9   69.7   8.45  .0745    0.003   212    5    100.0   10 
 3/31/20  7:10p   47.7   48.0   47.6    44   26.8   5.0   WSW   0.83  10.0     W   45.5   46.4   44.2   40.5  30.164  0.00  0.00    18     0.26     19     0.0  0.00   0.0   0.120   0.000   71.3    45   48.9   69.6   8.45  .0745    0.000   212    5    100.0   10 
 3/31/20  7:20p   47.6   47.9   47.5    43   26.2   7.0    SW   1.17  13.0   WSW   44.3   46.2   42.9   39.2  30.167  0.00  0.00    11     0.16     14     0.0  0.00   0.0   0.121   0.000   71.3    45   48.9   69.6   8.45  .0745    0.000   213    5    100.0   10 
 3/31/20  7:30p   45.9   47.8   45.9    42   24.1  15.0   WSW   2.50  20.0     W   38.5   44.5   37.1   34.2  30.173  0.01  0.00    11     0.16     12     0.0  0.00   0.0   0.133   0.000   71.2    45   48.8   69.4   8.45  .0745    0.000   212    5    100.0   10 
 3/31/20  7:40p   45.4   45.8   45.1    34   18.6   3.0   SSW   0.50  11.0    SW   44.5   43.8   42.9   38.8  30.170  0.02  0.32     9     0.13     12     0.0  0.00   0.0   0.136   0.000   71.2    45   48.8   69.4   8.45  .0745    0.000   213    5    100.0   10 
 3/31/20  7:50p   45.2   45.5   45.2    36   19.8   1.0     S   0.17   5.0   SSE   45.2   43.6   43.6   39.3  30.166  0.00  0.04     1     0.01      5     0.0  0.00   0.0   0.137   0.000   71.1    45   48.7   69.3   8.45  .0745    0.000   212    5    100.0   10 
 3/31/20  8:00p   44.9   45.2   44.9    34   18.2   1.0    SE   0.17   5.0   SSE   44.9   43.3   43.3   39.0  30.164  0.00  0.00     0     0.00      0     0.0  0.00   0.0   0.140   0.000   71.0    45   48.6   69.1   8.45  .0745    0.002   210    5    100.0   10 
 3/31/20  8:10p   44.6   44.9   44.6    32   16.5   1.0   ESE   0.17   4.0     S   44.6   42.9   42.9   38.5  30.167  0.00  0.00     0     0.00      0     0.0  0.00   0.0   0.142   0.000   70.9    45   48.5   69.0   8.45  .0746    0.000   213    5    100.0   10 
 3/31/20  8:20p   44.4   44.6   44.4    30   14.9   0.0    SE   0.00   1.0    SE   44.4   42.7   42.7   38.3  30.166  0.00  0.00     0     0.00      0     0.0  0.00   0.0   0.143   0.000   70.8    45   48.4   68.8   8.45  .0746    0.000   210    5    100.0   10 
 3/31/20  8:30p   44.3   44.4   44.3    27   12.4   1.0    SE   0.17   3.0    SE   44.3   42.5   42.5   38.0  30.165  0.00  0.00     0     0.00      0     0.0  0.00   0.0   0.144   0.000   70.7    45   48.3   68.7   8.45  .0746    0.000   212    5    100.0   10 
 3/31/20  8:40p   44.3   44.3   44.3    24    9.7   1.0    SE   0.17   4.0   SSE   44.3   42.4   42.4   37.8  30.169  0.00  0.00     0     0.00      0     0.0  0.00   0.0   0.144   0.000   70.7    45   48.3   68.7   8.45  .0746    0.000   214    5    100.0   10 
 3/31/20  8:50p   44.2   44.4   44.2    22    7.7   1.0   SSE   0.17   4.0   SSE   44.2   42.2   42.2   37.6  30.167  0.00  0.00     0     0.00      0     0.0  0.00   0.0   0.144   0.000   70.6    45   48.2   68.6   8.45  .0746    0.000   212    5    100.0   10 
 3/31/20  9:00p   43.9   44.2   43.9    18    3.0   1.0   SSE   0.17   4.0   SSE   43.9   41.9   41.9   37.2  30.165  0.00  0.00     0     0.00      0     0.0  0.00   0.0   0.147   0.000   70.5    45   48.1   68.4   8.45  .0746    0.002   211    5    100.0   10 
 3/31/20  9:10p   43.6   43.9   43.6    17    1.6   2.0    SE   0.33   5.0     S   43.6   41.5   41.5   36.7  30.165  0.00  0.00     0     0.00      0     0.0  0.00   0.0   0.149   0.000   70.4    45   48.0   68.3   8.45  .0746    0.000   214    5    100.0   10 
 3/31/20  9:20p   43.2   43.6   43.2    13   -4.4   1.0    SE   0.17   3.0    SE   43.2   41.0   41.0   36.0  30.166  0.00  0.00     0     0.00      0     0.0  0.00   0.0   0.151   0.000   70.3    45   47.9   68.2   8.45  .0747    0.000   209    5    100.0   10 
 3/31/20  9:30p   43.7   43.7   43.2     4  -27.3   2.0     S   0.33   5.0   WSW   43.7   41.3   41.3   35.9  30.170  0.00  0.00     0     0.00      0     0.0  0.00   0.0   0.148   0.000   70.2    45   47.9   68.1   8.45  .0747    0.000   212    5    100.0   10 
 3/31/20  9:40p   45.7   45.7   43.7     4  -25.8  11.0   WNW   1.83  18.0     W   39.8   43.1   37.2   32.8  30.172  0.00  0.00     0     0.00      0     0.0  0.00   0.0   0.134   0.000   70.1    45   47.8   67.9   8.45  .0747    0.000   213    5    100.0   10 
 3/31/20  9:50p   46.2   46.2   45.7    26   13.1  12.0   WNW   2.00  17.0   WNW   39.9   44.3   38.0   34.3  30.171  0.00  0.00     0     0.00      0     0.0  0.00   0.0   0.131   0.000   70.0    45   47.7   67.8   8.45  .0747    0.000   212    5    100.0   10 
 3/31/20 10:00p   46.5   46.7   46.2    42   24.6  12.0   WNW   2.00  19.0     W   40.3   45.1   38.9   35.5  30.168  0.00  0.00     0     0.00      0     0.0  0.00   0.0   0.128   0.000   69.9    45   47.6   67.7   8.45  .0747    0.005   213    5    100.0   10 
 3/31/20 10:10p   46.3   46.5   46.0    40   23.3   8.0    SW   1.33  20.0    SW   42.1   44.8   40.6   36.6  30.167  0.00  0.00     0     0.00      0     0.0  0.00   0.0   0.130   0.000   69.9    45   47.6   67.7   8.45  .0747    0.000   214    5    100.0   10 
 3/31/20 10:20p   46.3   46.4   46.2    37   21.4   8.0    SW   1.33  12.0    SW   42.1   44.7   40.5   36.5  30.165  0.00  0.00     0     0.00      0     0.0  0.00   0.0   0.130   0.000   69.8    45   47.5   67.7   8.45  .0747    0.000   211    5    100.0   10 
 3/31/20 10:30p   46.2   46.3   46.1    33   18.6   6.0     S   1.00  11.0    SW   43.1   44.5   41.4   37.1  30.165  0.00  0.00     0     0.00      0     0.0  0.00   0.0   0.131   0.000   69.7    45   47.4   67.6   8.46  .0748    0.000   211    5    100.0   10 
 3/31/20 10:40p   44.7   46.2   44.7    35   18.7   1.0   SSW   0.17   5.0   SSW   44.7   43.1   43.1   38.8  30.166  0.00  0.00     0     0.00      0     0.0  0.00   0.0   0.141   0.000   69.6    45   47.3   67.5   8.46  .0748    0.000   211    5    100.0   10 
 3/31/20 10:50p   43.6   44.7   43.6    32   15.6   2.0   SSE   0.33   4.0     S   43.6   41.9   41.9   37.5  30.162  0.00  0.00     0     0.00      0     0.0  0.00   0.0   0.149   0.000   69.5    45   47.2   67.4   8.46  .0748    0.000   210    5    100.0   10 
 3/31/20 11:00p   43.0   43.6   43.0    28   12.1   1.0   SSE   0.17   4.0   SSE   43.0   41.3   41.3   36.8  30.160  0.00  0.00     0     0.00      0     0.0  0.00   0.0   0.153   0.000   69.5    45   47.2   67.4   8.46  .0748    0.003   212    5    100.0   10 
 3/31/20 11:10p   42.8   43.0   42.8    25    9.3   2.0   SSE   0.33   4.0   SSE   42.8   41.0   41.0   36.4  30.158  0.00  0.00     0     0.00      0     0.0  0.00   0.0   0.154   0.000   69.4    45   47.1   67.4   8.46  .0748    0.000   212    5    100.0   10 
 3/31/20 11:20p   42.7   42.8   42.7    22    6.4   2.0    SE   0.33   5.0     S   42.7   40.8   40.8   36.2  30.156  0.00  0.00     0     0.00      0     0.0  0.00   0.0   0.155   0.000   69.3    45   47.0   67.3   8.46  .0748    0.000   213    5    100.0   10 
 3/31/20 11:30p   42.8   42.9   42.7    17    0.9   2.0     S   0.33   6.0   SSE   42.8   40.7   40.7   35.9  30.154  0.00  0.00     0     0.00      0     0.0  0.00   0.0   0.154   0.000   69.2    45   46.9   67.2   8.47  .0748    0.000   211    5    100.0   10 
 3/31/20 11:40p   42.9   42.9   42.8    14   -3.1   2.0   ESE   0.33   4.0    SE   42.9   40.8   40.8   35.8  30.156  0.01  0.00     0     0.00      0     0.0  0.00   0.0   0.153   0.000   69.2    45   46.9   67.2   8.47  .0748    0.000   212    5    100.0   10 
 3/31/20 11:50p   43.4   43.4   42.9     7  -16.8   2.0   ESE   0.33   7.0   SSW   43.4   41.0   41.0   35.7  30.157  0.01  0.07     0     0.00      0     0.0  0.00   0.0   0.150   0.000   69.1    45   46.9   67.2   8.47  .0748    0.000   211    5    100.0   10 
 4/01/20 12:00a   43.3   43.5   43.3     8  -14.2   2.0    SE   0.33   7.0    SE   43.3   41.0   41.0   35.8  30.154  0.00  0.00     0     0.00      0     0.0  0.00   0.0   0.151   0.000   69.0    45   46.8   67.1   8.47  .0748    0.003   210    5    100.0   10 
 4/01/20 12:10a   42.9   43.3   42.9    10  -10.1   2.0   SSE   0.33   5.0   SSW   42.9   40.6   40.6   35.5  30.152  0.00  0.00     0     0.00      0     0.0  0.00   0.0   0.153   0.000   68.9    44   46.1   66.9   8.35  .0749    0.000   211    5    100.0   10 
 4/01/20 12:20a   42.6   42.9   42.5    10  -10.3   2.0    SE   0.33   5.0     S   42.6   40.3   40.3   35.3  30.152  0.00  0.00     0     0.00      0     0.0  0.00   0.0   0.156   0.000   68.9    44   46.1   66.9   8.35  .0749    0.000   210    5    100.0   10 
 4/01/20 12:30a   42.4   42.6   42.4    11   -8.5   2.0   SSW   0.33   5.0     S   42.4   40.2   40.2   35.2  30.151  0.00  0.00     0     0.00      0     0.0  0.00   0.0   0.157   0.000   68.8    44   46.0   66.8   8.35  .0749    0.000   212    5    100.0   10 
 4/01/20 12:40a   42.2   42.4   42.2     8  -15.1   2.0   ESE   0.33   4.0    SE   42.2   39.9   39.9   34.7  30.150  0.00  0.00     0     0.00      0     0.0  0.00   0.0   0.158   0.000   68.7    44   45.9   66.7   8.35  .0749    0.000   214    5    100.0   10 
 4/01/20 12:50a   42.3   42.3   42.2     8  -15.0   2.0    SE   0.33   5.0    SE   42.3   40.0   40.0   34.8  30.152  0.00  0.00     0     0.00      0     0.0  0.00   0.0   0.158   0.000   68.7    44   45.9   66.7   8.35  .0749    0.000   212    5    100.0   10 
 4/01/20  1:00a   42.0   42.3   42.0     7  -17.9   2.0    SE   0.33   5.0   SSE   42.0   39.7   39.7   34.4  30.150  0.00  0.00     0     0.00      0     0.0  0.00   0.0   0.160   0.000   68.6    44   45.8   66.6   8.35  .0749    0.003   213    5    100.0   10 
 4/01/20  1:10a   42.0   42.0   41.9     5  -24.3   2.0    SE   0.33   4.0   SSE   42.0   39.7   39.7   34.3  30.150  0.00  0.00     0     0.00      0     0.0  0.00   0.0   0.160   0.000   68.5    44   45.7   66.5   8.35  .0749    0.000   212    5    100.0   10 
 4/01/20  1:20a   41.9   42.0   41.9     4  -28.5   2.0    SE   0.33   6.0   ESE   41.9   39.6   39.6   34.2  30.149  0.00  0.00     0     0.00      0     0.0  0.00   0.0   0.160   0.000   68.4    44   45.6   66.4   8.35  .0750    0.000   212    5    100.0   10 
 4/01/20  1:30a   42.2   42.4   41.9     3  -33.6   2.0     S   0.33   6.0   SSW   42.2   39.8   39.8   34.3  30.148  0.00  0.00     0     0.00      0     0.0  0.00   0.0   0.158   0.000   68.3    44   45.5   66.4   8.35  .0750    0.000   212    5    100.0   10 
 4/01/20  1:40a   42.0   42.2   42.0     1  -52.4   2.0   ESE   0.33   7.0   SSE   42.0   39.5   39.5   33.9  30.147  0.00  0.00     0     0.00      0     0.0  0.00   0.0   0.160   0.000   68.3    44   45.5   66.4   8.35  .0750    0.000   212    5    100.0   10 
 4/01/20  1:50a   42.0   42.0   41.9     1  -52.4   2.0     S   0.33   6.0     S   42.0   39.5   39.5   33.9  30.145  0.00  0.00     0     0.00      0     0.0  0.00   0.0   0.160   0.000   68.2    44   45.4   66.3   8.35  .0750    0.000   213    5    100.0   10 
 4/01/20  2:00a   42.2   42.2   42.0     1  -52.3   2.0     S   0.33   6.0   SSE   42.2   39.7   39.7   34.1  30.143  0.00  0.00     0     0.00      0     0.0  0.00   0.0   0.158   0.000   68.1    44   45.4   66.2   8.35  .0750    0.003   212    5    100.0   10 
 4/01/20  2:10a   42.4   42.4   42.1     1  -52.2   2.0   SSW   0.33   5.0     S   42.4   39.9   39.9   34.3  30.141  0.00  0.00     0     0.00      0     0.0  0.00   0.0   0.157   0.000   68.1    44   45.4   66.2   8.35  .0750    0.000   214    5    100.0   10 
 4/01/20  2:20a   42.6   42.6   42.3     1  -52.0   2.0     S   0.33   7.0   SSW   42.6   40.1   40.1   34.5  30.143  0.00  0.00     0     0.00      0     0.0  0.00   0.0   0.156   0.000   68.0    44   45.3   66.1   8.35  .0750    0.000   209    5    100.0   10 
 4/01/20  2:30a   43.3   43.3   42.6     1  -51.6   2.0    SW   0.33   5.0   SSW   43.3   40.8   40.8   35.2  30.140  0.00  0.00     0     0.00      0     0.0  0.00   0.0   0.151   0.000   67.9    44   45.2   66.0   8.35  .0750    0.000   213    5    100.0   10 
 4/01/20  2:40a   42.9   43.3   42.7     1  -51.9   2.0     S   0.33   5.0   SSW   42.9   40.4   40.4   34.8  30.138  0.00  0.00     0     0.00      0     0.0  0.00   0.0   0.153   0.000   67.8    44   45.1   65.9   8.35  .0750    0.000   213    5    100.0   10 
 4/01/20  2:50a   42.9   43.4   42.9     1  -51.9   2.0   SSW   0.33   8.0   WSW   42.9   40.4   40.4   34.8  30.137  0.00  0.00     0     0.00      0     0.0  0.00   0.0   0.153   0.000   67.7    44   45.0   65.7   8.35  .0750    0.000   213    5    100.0   10 
 4/01/20  3:00a   42.9   42.9   42.6     1  -51.9   3.0     S   0.50   8.0   SSE   41.7   40.4   39.2   33.6  30.134  0.00  0.00     0     0.00      0     0.0  0.00   0.0   0.153   0.000   67.7    44   45.0   65.7   8.35  .0750    0.003   213    5    100.0   10 
 4/01/20  3:10a   43.3   44.0   42.5     1  -51.6   4.0   SSW   0.67   9.0   WSW   41.1   40.8   38.6   33.0  30.133  0.00  0.00     0     0.00      0     0.0  0.00   0.0   0.151   0.000   67.6    44   44.9   65.6   8.35  .0750    0.000   213    5    100.0   10 
 4/01/20  3:20a   42.3   43.2   42.3     1  -52.2   1.0   SSE   0.17   4.0   SSE   42.3   39.8   39.8   34.2  30.130  0.00  0.00     0     0.00      0     0.0  0.00   0.0   0.158   0.000   67.5    44   44.8   65.5   8.35  .0751    0.000   211    5    100.0   10 
 4/01/20  3:30a   41.6   42.3   41.6     1  -52.7   2.0     S   0.33   6.0   SSE   41.6   39.2   39.2   33.6  30.124  0.00  0.00     0     0.00      0     0.0  0.00   0.0   0.163   0.000   67.4    44   44.7   65.4   8.35  .0751    0.000   213    5    100.0   10 
 4/01/20  3:40a   41.0   41.5   40.9     1  -53.0   2.0    SE   0.33   7.0   ESE   40.9   38.6   38.5   32.9  30.127  0.00  0.00     0     0.00      0     0.0  0.00   0.0   0.167   0.000   67.3    44   44.6   65.3   8.35  .0751    0.000   211    5    100.0   10 
 4/01/20  3:50a   41.4   41.4   40.7     1  -52.8   4.0   SSW   0.67  12.0     S   38.9   39.0   36.5   30.9  30.126  0.01  0.00     0     0.00      0     0.0  0.00   0.0   0.164   0.000   67.3    44   44.6   65.3   8.35  .0751    0.000   212    5    100.0   10 
 4/01/20  4:00a   42.6   42.6   41.5     1  -52.0   3.0   SSW   0.50  12.0     S   41.3   40.1   38.8   33.2  30.125  0.00  0.00     0     0.00      0     0.0  0.00   0.0   0.156   0.000   67.2    44   44.5   65.2   8.35  .0751    0.003   214    5    100.0   10 
 4/01/20  4:10a   41.4   42.6   41.4     1  -52.8   1.0     S   0.17   3.0   SSW   41.4   39.0   39.0   33.4  30.124  0.00  0.00     0     0.00      0     0.0  0.00   0.0   0.164   0.000   67.1    44   44.4   65.1   8.35  .0751    0.000   213    5    100.0   10 
 4/01/20  4:20a   41.1   41.4   41.1     1  -53.0   1.0     S   0.17   3.0   SSE   41.1   38.7   38.7   33.1  30.122  0.00  0.00     0     0.00      0     0.0  0.00   0.0   0.166   0.000   67.0    44   44.4   65.0   8.35  .0751    0.000   211    5    100.0   10 
 4/01/20  4:30a   41.3   41.3   41.0     1  -52.9   0.0    SE   0.00   3.0   ESE   41.3   38.9   38.9   33.3  30.118  0.00  0.00     0     0.00      0     0.0  0.00   0.0   0.165   0.000   66.9    44   44.3   64.9   8.35  .0751    0.000   214    5    100.0   10 
 4/01/20  4:40a   41.9   41.9   41.3     1  -52.5   1.0   SSW   0.17   4.0   SSW   41.9   39.4   39.4   33.8  30.118  0.00  0.00     0     0.00      0     0.0  0.00   0.0   0.160   0.000   66.9    44   44.3   64.9   8.35  .0751    0.000   211    5    100.0   10 
 4/01/20  4:50a   41.8   42.1   41.8     1  -52.5   1.0   SSW   0.17   2.0   SSW   41.8   39.4   39.4   33.8  30.118  0.00  0.00     0     0.00      0     0.0  0.00   0.0   0.161   0.000   66.8    44   44.2   64.7   8.35  .0751    0.000   211    5    100.0   10 
 4/01/20  5:00a   41.8   41.8   41.7     1  -52.5   0.0   ---   0.00   0.0   ---   41.8   39.4   39.4   33.8  30.113  0.00  0.00     0     0.00      0     0.0  0.00   0.0   0.161   0.000   66.7    44   44.1   64.6   8.35  .0751    0.002   212    5    100.0   10 
 4/01/20  5:10a   43.1   43.1   41.8     1  -51.7   2.0   NNE   0.33   5.0   NNW   43.1   40.6   40.6   35.0  30.113  0.00  0.00     0     0.00      0     0.0  0.00   0.0   0.152   0.000   66.7    44   44.1   64.6   8.35  .0751    0.000   213    5    100.0   10 
 4/01/20  5:20a   41.6   43.2   41.6     1  -52.7   2.0     S   0.33   8.0   SSW   41.6   39.2   39.2   33.6  30.118  0.03  0.37     0     0.00      0     0.0  0.00   0.0   0.163   0.000   66.6    44   44.0   64.5   8.35  .0752    0.000   211    5    100.0   10 
 4/01/20  5:30a   41.4   41.6   41.3     1  -52.8   2.0   ESE   0.33   4.0   ESE   41.3   39.0   38.9   33.3  30.113  0.00  0.05     0     0.00      0     0.0  0.00   0.0   0.164   0.000   66.5    44   43.9   64.4   8.35  .0752    0.000   212    5    100.0   10 
 4/01/20  5:40a   41.2   41.5   41.2     1  -52.9   2.0     S   0.33   6.0   SSE   41.1   38.8   38.7   33.1  30.114  0.01  0.05     0     0.00      0     0.0  0.00   0.0   0.165   0.000   66.4    44   43.8   64.3   8.35  .0752    0.000   210    5    100.0   10 
 4/01/20  5:50a   42.0   42.0   41.2     1  -52.4   2.0   WNW   0.33   5.0    NE   42.0   39.5   39.5   33.9  30.119  0.01  0.07     0     0.00      0     0.0  0.00   0.0   0.160   0.000   66.4    44   43.8   64.3   8.35  .0752    0.000   211    5    100.0   10 
 4/01/20  6:00a   41.2   42.0   41.2     1  -52.9   2.0     S   0.33   8.0     S   41.1   38.8   38.7   33.1  30.119  0.00  0.05     0     0.00      0     0.0  0.00   0.0   0.165   0.000   66.3    44   43.7   64.2   8.35  .0752    0.003   211    5    100.0   10 
 4/01/20  6:10a   40.7   41.2   40.7     1  -53.2   2.0    SE   0.33   8.0   SSE   40.6   38.3   38.2   32.6  30.116  0.00  0.00     0     0.00      0     0.0  0.00   0.0   0.169   0.000   66.4    44   43.8   64.3   8.35  .0752    0.000   212    5    100.0   10 
 4/01/20  6:20a   41.0   41.0   40.7     1  -53.0   2.0   SSE   0.33   7.0     S   40.9   38.6   38.5   32.9  30.112  0.01  0.00     0     0.00      0     0.0  0.00   0.0   0.167   0.000   66.5    45   44.5   64.5   8.52  .0752    0.000   210    5    100.0   10 
 4/01/20  6:30a   41.3   41.3   41.0     1  -52.9   2.0     S   0.33   8.0    SE   41.2   38.9   38.8   33.2  30.106  0.00  0.00     0     0.00      0     0.0  0.00   0.0   0.165   0.000   66.6    45   44.6   64.6   8.52  .0751    0.000   213    5    100.0   10 
 4/01/20  6:40a   41.6   41.6   41.3     1  -52.7   3.0   SSE   0.50   9.0   SSE   40.2   39.2   37.8   32.2  30.100  0.00  0.00     0     0.00      0     0.0  0.00   0.0   0.163   0.000   66.7    45   44.7   64.7   8.52  .0751    0.000   212    5    100.0   10 
 4/01/20  6:50a   41.7   41.7   41.6     1  -52.6   3.0    SE   0.50  12.0   ESE   40.3   39.3   37.9   32.3  30.103  0.00  0.00     0     0.00      0     0.0  0.00   0.0   0.162   0.000   66.8    45   44.8   64.9   8.51  .0751    0.000   213    5    100.0   10 
 4/01/20  7:00a   42.0   42.0   41.5     1  -52.4   2.0     S   0.33   8.0     W   42.0   39.5   39.5   33.9  30.114  0.00  0.00     0     0.00      0     0.0  0.00   0.0   0.160   0.000   67.0    45   44.9   65.1   8.51  .0751    0.003   213    5    100.0   10 
 4/01/20  7:10a   43.3   43.3   42.0     1  -51.6   7.0   WNW   1.17  12.0    NW   39.2   40.8   36.7   31.3  30.109  0.02  0.07     1     0.01      5     0.0  0.00   0.0   0.151   0.000   67.2    46   45.7   65.4   8.65  .0750    0.000   210    5    100.0   10 
 4/01/20  7:20a   43.1   43.8   42.7     1  -51.7   5.0   SSW   0.83  12.0   WSW   40.1   40.6   37.6   32.1  30.108  0.00  0.06     7     0.10      9     0.0  0.00   0.0   0.152   0.000   67.4    46   45.9   65.6   8.65  .0750    0.000   210    5    100.0   10 
 4/01/20  7:30a   41.8   43.1   41.8     1  -52.5   2.0   ESE   0.33   7.0   ESE   41.8   39.4   39.4   34.0  30.107  0.00  0.00     9     0.13     12     0.0  0.00   0.0   0.161   0.000   67.6    46   46.1   65.9   8.65  .0749    0.000   212    5    100.0   10 
 4/01/20  7:40a   41.7   41.8   41.7     1  -52.6   2.0     S   0.33   5.0     S   41.7   39.3   39.3   34.1  30.110  0.00  0.00    18     0.26     21     0.0  0.00   0.0   0.162   0.000   67.7    46   46.2   66.0   8.65  .0749    0.000   211    5    100.0   10 
 4/01/20  7:50a   41.6   41.7   41.6     1  -52.7   1.0     S   0.17   4.0   SSW   41.6   39.2   39.2   34.2  30.105  0.00  0.00    26     0.37     30     0.0  0.00   0.0   0.163   0.000   67.9    45   45.8   66.1   8.49  .0749    0.000   212    5    100.0   10 
 4/01/20  8:00a   41.7   41.7   41.6     1  -52.6   2.0     S   0.33   5.0   SSW   41.7   39.3   39.3   34.3  30.103  0.00  0.00    26     0.37     32     0.0  0.00   0.0   0.162   0.000   68.0    45   45.9   66.2   8.49  .0749    0.002   213    5    100.0   10 
 4/01/20  8:10a   41.7   41.8   41.6     1  -52.6   2.0     S   0.33   5.0    SW   41.7   39.3   39.3   35.1  30.100  0.00  0.00    60     0.86    111     2.0  0.14   5.0   0.162   0.000   68.2    45   46.0   66.4   8.49  .0748    0.000   210    5    100.0   10 
 4/01/20  8:20a   42.2   42.2   41.7     1  -52.3   3.0     S   0.50   8.0   SSW   40.8   39.7   38.3   39.0  30.093  0.00  0.00   134     1.92    209     5.0  0.36   5.0   0.158   0.000   68.3    45   46.1   66.5   8.48  .0748    0.000   212    5    100.0   10 
 4/01/20  8:30a   43.2   43.2   42.2     1  -51.7   6.0   SSW   1.00  11.0   SSW   39.5   40.7   37.0   34.5  30.092  0.00  0.00    25     0.36     30     0.0  0.00   0.0   0.151   0.000   68.4    45   46.2   66.6   8.48  .0748    0.000   210    5    100.0   10 
 4/01/20  8:40a   43.9   43.9   43.2     1  -51.2   6.0   SSW   1.00  16.0   SSE   40.4   41.3   37.8   35.0  30.085  0.00  0.00    19     0.27     32     0.0  0.00   0.0   0.147   0.000   68.5    45   46.3   66.6   8.48  .0748    0.000   212    5    100.0   10 
 4/01/20  8:50a   44.2   44.2   43.9     1  -51.1   7.0   SSW   1.17  16.0     S   40.2   41.6   37.6   34.2  30.083  0.01  0.00     8     0.11     11     0.0  0.00   0.0   0.144   0.000   68.6    45   46.4   66.7   8.48  .0747    0.000   211    5    100.0   10 
 4/01/20  9:00a   45.2   45.2   44.3     1  -50.4  11.0   SSW   1.83  17.0   SSW   39.2   42.5   36.5   33.5  30.088  0.00  0.00     7     0.10     11     0.0  0.00   0.0   0.137   0.000   68.7    45   46.5   66.8   8.48  .0747    0.004   213    5    100.0   10 
 4/01/20  9:10a   45.6   45.6   45.0     1  -50.2  12.0   SSW   2.00  22.0     S   39.3   42.9   36.6   33.8  30.092  0.00  0.00     9     0.13     12     0.0  0.00   0.0   0.135   0.000   68.8    45   46.6   66.9   8.47  .0747    0.000   213    5    100.0   10 
 4/01/20  9:20a   45.7   45.9   45.6     1  -50.1  14.0    SW   2.33  24.0    SW   38.6   43.0   35.9   33.9  30.084  0.00  0.00    28     0.40     44     0.0  0.00   0.0   0.134   0.000   68.8    44   46.0   66.8   8.35  .0747    0.000   211    5    100.0   10 
 4/01/20  9:30a   46.0   46.0   45.7     1  -49.9  14.0   SSW   2.33  22.0     S   39.0   43.3   36.3   34.5  30.084  0.00  0.00    35     0.50     44     0.0  0.00   0.0   0.132   0.000   68.9    44   46.1   66.9   8.35  .0747    0.000   211    5    100.0   10 
 4/01/20  9:40a   46.2   46.6   46.0     1  -49.8  16.0   SSW   2.67  29.0    SW   38.5   43.5   35.8   33.3  30.094  0.01  0.00     9     0.13     19     0.0  0.00   0.0   0.131   0.000   69.0    44   46.2   67.0   8.35  .0747    0.000   212    5    100.0   10 
 4/01/20  9:50a   45.7   46.1   45.6     6  -18.1  15.0   WSW   2.50  24.0   WSW   38.3   43.2   35.8   33.5  30.093  0.00  0.00    13     0.19     21     0.0  0.00   0.0   0.134   0.000   69.1    44   46.3   67.1   8.35  .0747    0.000   213    5    100.0   10 
 4/01/20 10:00a   45.1   45.9   44.9     7  -15.5  11.0     W   1.83  17.0     W   39.1   42.6   36.6   34.3  30.095  0.01  0.04    21     0.30     30     0.0  0.00   0.0   0.138   0.000   69.1    44   46.3   67.1   8.35  .0747    0.009   212    5    100.0   10 
 4/01/20 10:10a   45.4   46.4   45.1     9  -10.3  15.0    SW   2.50  27.0   WSW   37.9   43.0   35.5   34.5  30.096  0.00  0.04    56     0.80     62     3.8  0.27   5.0   0.136   0.000   69.2    44   46.4   67.1   8.35  .0747    0.000   213    5    100.0   10 
 4/01/20 10:20a   45.2   45.4   45.0     1  -50.4  15.0    SW   2.50  23.0    SW   37.7   42.5   35.0   33.7  30.092  0.01  0.04    54     0.77    114     1.4  0.10   5.0   0.137   0.000   69.3    44   46.4   67.2   8.35  .0747    0.000   212    5    100.0   10 
 4/01/20 10:30a   45.5   45.7   45.2     1  -50.2  14.0   SSW   2.33  19.0     S   38.4   42.8   35.7   38.5  30.088  0.00  0.00   234     3.35    294     5.0  0.36   5.0   0.135   0.000   69.5    44   46.6   67.4   8.35  .0746    0.000   213    5    100.0   10 
 4/01/20 10:40a   46.0   46.0   45.5     1  -49.9  14.0   SSW   2.33  21.0     S   39.0   43.3   36.3   42.8  30.087  0.00  0.00   536     7.68    779     5.0  0.36   5.0   0.132   0.000   69.7    44   46.8   67.5   8.35  .0746    0.000   212    5    100.0   10 
 4/01/20 10:50a   46.1   46.2   46.0     1  -49.9  14.0   SSW   2.33  19.0   SSW   39.1   43.4   36.4   42.0  30.089  0.00  0.00   500     7.17    654     5.0  0.36   5.0   0.131   0.000   69.9    44   47.0   67.6   8.35  .0745    0.000   210    5    100.0   10 
 4/01/20 11:00a   46.0   46.4   46.0     1  -49.9  11.0   SSW   1.83  19.0   SSE   40.2   43.3   37.5   43.7  30.087  0.00  0.00   441     6.32    582     5.0  0.36   5.0   0.132   0.000   70.0    44   47.1   67.7   8.35  .0745    0.014   213    5    100.0   10 
 4/01/20 11:10a   45.2   46.0   45.2     1  -50.4   8.0   SSW   1.33  14.0   WSW   40.8   42.5   38.1   37.8  30.080  0.00  0.00   109     1.56    156     5.0  0.36   5.0   0.137   0.000   70.0    44   47.1   67.7   8.35  .0745    0.000   213    5    100.0   10 
 4/01/20 11:20a   45.1   45.4   45.1     1  -50.5  10.0   SSW   1.67  21.0   SSE   39.6   42.4   36.9   35.1  30.086  0.01  0.00    56     0.80    130     2.2  0.16   5.0   0.138   0.000   70.0    44   47.1   67.7   8.35  .0745    0.000   209    5    100.0   10 
 4/01/20 11:30a   45.2   45.2   45.0     1  -50.4  11.0   SSW   1.83  19.0   SSW   39.2   42.5   36.5   34.7  30.081  0.01  0.23    55     0.79     98     2.0  0.14   5.0   0.137   0.000   70.0    44   47.1   67.7   8.35  .0745    0.000   213    5    100.0   10 
 4/01/20 11:40a   45.7   45.8   45.2     1  -50.1  10.0   SSW   1.67  17.0   SSW   40.3   43.0   37.6   37.7  30.082  0.00  0.00   127     1.82    146     5.0  0.36   5.0   0.134   0.000   70.2    44   47.3   68.0   8.35  .0745    0.000   211    5    100.0   10 
 4/01/20 11:50a   45.4   45.7   45.2     1  -50.3   9.0   SSW   1.50  14.0    SW   40.5   42.7   37.8   36.6  30.080  0.00  0.00    83     1.19    100     5.0  0.36   5.0   0.136   0.000   70.3    44   47.3   68.1   8.34  .0745    0.000   213    5    100.0   10 
 4/01/20 12:00p   45.4   45.7   45.3     1  -50.3   8.0    SW   1.33  19.0   WSW   41.1   42.7   38.4   36.6  30.089  0.00  0.00    63     0.90     83     2.5  0.18   5.0   0.136   0.000   70.4    44   47.4   68.2   8.34  .0745    0.007   211    5    100.0   10 
 4/01/20 12:10p   46.0   46.0   45.3     1  -49.9   7.0   WNW   1.17  10.0     W   42.4   43.3   39.7   39.2  30.082  0.01  0.00   111     1.59    167     5.0  0.36   5.0   0.132   0.000   70.6    44   47.6   68.5   8.34  .0744    0.000   213    5    100.0   10 
 4/01/20 12:20p   46.2   46.8   46.0     1  -49.8   9.0   WNW   1.50  19.0   WNW   41.4   43.5   38.7   38.7  30.083  0.00  0.00   131     1.88    227     5.0  0.36   5.0   0.131   0.000   70.7    44   47.7   68.6   8.34  .0744    0.000   209    5    100.0   10 
 4/01/20 12:30p   46.8   46.8   46.2     1  -49.4   8.0   WNW   1.33  13.0     W   42.7   44.0   39.9   48.6  30.083  0.00  0.00   717    10.28    998     5.0  0.36   5.0   0.126   0.000   70.8    44   47.8   68.7   8.33  .0744    0.000   211    5    100.0   10 
 4/01/20 12:40p   47.4   47.4   46.8     4  -24.6  10.0     W   1.67  14.0     W   42.3   44.7   39.6   48.8  30.080  0.00  0.00   771    11.05    914     5.0  0.36   5.0   0.122   0.000   71.1    44   48.1   69.1   8.33  .0743    0.000   210    5    100.0   10 
 4/01/20 12:50p   47.8   47.9   47.4    11   -4.3   9.0     W   1.50  12.0     W   43.3   45.3   40.8   48.4  30.081  0.00  0.00   527     7.55    935     5.0  0.36   5.0   0.119   0.000   71.2    44   48.2   69.3   8.33  .0743    0.000   213    5    100.0   10 
 4/01/20  1:00p   47.4   47.9   47.3     7  -13.8   8.0   WNW   1.33  15.0   WNW   43.4   44.8   40.8   43.6  30.082  0.00  0.00   239     3.43    297     5.0  0.36   5.0   0.122   0.000   71.3    44   48.3   69.5   8.32  .0743    0.013   211    5    100.0   10 
 4/01/20  1:10p   48.0   48.0   47.3     1  -48.7   7.0   WNW   1.17  11.0    NW   44.8   45.1   41.9   49.9  30.083  0.00  0.00   612     8.77    944     5.0  0.36   5.0   0.118   0.000   71.4    44   48.3   69.6   8.32  .0743    0.000   210    5    100.0   10 
 4/01/20  1:20p   47.6   48.1   47.6    15    2.1  12.0   WNW   2.00  17.0     W   41.6   45.2   39.2   45.8  30.084  0.00  0.00   499     7.15    867     5.0  0.36   5.0   0.121   0.000   71.6    43   47.9   69.8   8.19  .0743    0.000   213    5    100.0   10 
 4/01/20  1:30p   47.2   47.6   47.2    23   11.2  12.0     W   2.00  17.0     W   41.1   45.1   39.0   44.7  30.084  0.00  0.00   413     5.92    577     5.0  0.36   5.0   0.124   0.000   71.7    43   48.0   69.9   8.18  .0743    0.000   212    5    100.0   10 
 4/01/20  1:40p   47.6   47.7   47.3    18    6.1  10.0     W   1.67  15.0   WSW   42.5   45.3   40.2   47.9  30.085  0.00  0.00   655     9.39   1018     5.0  0.36   5.0   0.121   0.000   71.7    43   48.0   69.9   8.18  .0743    0.000   212    5    100.0   10 
 4/01/20  1:50p   47.4   47.8   47.4    12   -2.8  10.0     W   1.67  13.0     W   42.3   44.9   39.8   44.7  30.087  0.00  0.00   351     5.03    628     5.0  0.36   5.0   0.122   0.000   71.6    43   47.9   69.8   8.19  .0743    0.000   212    5    100.0   10 
 4/01/20  2:00p   47.8   47.9   47.3     7  -13.5   8.0   WNW   1.33  11.0     W   43.9   45.1   41.2   50.7  30.090  0.00  0.00   721    10.34   1053     5.0  0.36   5.0   0.119   0.000   71.6    43   47.9   69.8   8.19  .0743    0.015   213    5    100.0   10 
Email: AdamSPAM@StormwatchersRetreat.com (To send me email remove the word 'SPAM' from my email address.)